createdAt,value
2019-04-04T00:00:45.151Z,36.13
2019-04-04T00:03:21.238Z,43.77
2019-04-04T00:05:58.129Z,37.33
2019-04-04T00:08:33.710Z,39.83
2019-04-04T00:11:08.847Z,35.90
2019-04-04T00:13:44.081Z,39.80
2019-04-04T00:16:22.813Z,39.33
2019-04-04T00:18:59.122Z,46.03
2019-04-04T00:21:34.829Z,38.50
2019-04-04T00:24:10.103Z,44.90
2019-04-04T00:26:45.198Z,44.10
2019-04-04T00:29:20.265Z,42.50
2019-04-04T00:31:55.258Z,41.73
2019-04-04T00:34:30.312Z,97.50
2019-04-04T00:37:05.350Z,41.80
2019-04-04T00:39:40.497Z,48.73
2019-04-04T00:42:16.968Z,45.97
2019-04-04T00:44:53.868Z,45.27
2019-04-04T00:47:32.354Z,40.47
2019-04-04T00:50:10.361Z,40.90
2019-04-04T00:52:45.318Z,62.47
2019-04-04T00:55:20.328Z,59.90
2019-04-04T00:57:55.365Z,63.63
2019-04-04T01:00:30.404Z,62.57
2019-04-04T01:03:05.515Z,89.80
2019-04-04T01:05:40.548Z,61.80
2019-04-04T01:08:15.538Z,39.80
2019-04-04T01:10:50.527Z,49.07
2019-04-04T01:13:27.563Z,81.30
2019-04-04T01:16:03.295Z,40.13
2019-04-04T01:18:38.402Z,41.47
2019-04-04T01:21:13.516Z,68.60
2019-04-04T01:23:48.510Z,46.17
2019-04-04T01:26:23.645Z,38.93
2019-04-04T01:28:59.615Z,39.47
2019-04-04T01:31:35.388Z,48.90
2019-04-04T01:34:10.494Z,42.00
2019-04-04T01:36:45.534Z,56.67
2019-04-04T01:39:20.666Z,42.50
2019-04-04T01:41:55.647Z,42.23
2019-04-04T01:44:30.945Z,33.37
2019-04-04T01:47:06.328Z,35.93
2019-04-04T01:49:41.389Z,40.60
2019-04-04T01:52:16.404Z,37.20
2019-04-04T01:54:51.488Z,34.50
2019-04-04T01:57:26.544Z,39.70
2019-04-04T02:00:01.721Z,29.10
2019-04-04T02:02:38.070Z,31.20
2019-04-04T02:05:13.735Z,36.67
2019-04-04T02:07:49.454Z,39.40
2019-04-04T02:10:24.330Z,31.07
2019-04-04T02:13:02.720Z,33.17
2019-04-04T02:15:37.736Z,32.60
2019-04-04T02:18:12.804Z,35.17
2019-04-04T02:20:47.750Z,69.20
2019-04-04T02:23:22.840Z,96.60
2019-04-04T02:25:57.814Z,37.10
2019-04-04T02:28:33.542Z,35.13
2019-04-04T02:31:09.301Z,33.77
2019-04-04T02:33:44.498Z,35.50
2019-04-04T02:36:19.527Z,31.47
2019-04-04T02:39:13.200Z,34.40
2019-04-04T02:41:49.309Z,41.87
2019-04-04T02:44:24.242Z,31.60
2019-04-04T02:46:59.205Z,31.20
2019-04-04T02:49:34.474Z,25.73
2019-04-04T02:52:12.819Z,30.60
2019-04-04T02:54:46.249Z,32.10
2019-04-04T02:57:21.319Z,33.43
2019-04-04T02:59:56.276Z,28.47
2019-04-04T03:02:31.251Z,30.97
2019-04-04T03:05:06.525Z,28.83
2019-04-04T03:07:43.732Z,27.53
2019-04-04T03:10:18.689Z,32.80
2019-04-04T03:12:58.033Z,31.27
2019-04-04T03:15:31.012Z,28.60
2019-04-04T03:18:06.352Z,30.83
2019-04-04T03:20:41.416Z,28.73
2019-04-04T03:23:16.383Z,22.67
2019-04-04T03:25:51.458Z,26.17
2019-04-04T03:28:31.363Z,23.23
2019-04-04T03:31:03.949Z,23.80
2019-04-04T03:33:40.771Z,25.57
2019-04-04T03:36:15.753Z,24.80
2019-04-04T03:38:50.952Z,27.60
2019-04-04T03:41:27.607Z,22.33
2019-04-04T03:44:02.684Z,22.80
2019-04-04T03:46:38.999Z,23.90
2019-04-04T03:49:14.374Z,19.70
2019-04-04T03:51:49.357Z,22.63
2019-04-04T03:54:26.603Z,26.07
2019-04-04T03:57:01.979Z,23.30
2019-04-04T03:59:37.240Z,24.30
2019-04-04T04:02:12.423Z,23.93
2019-04-04T04:04:47.469Z,29.70
2019-04-04T04:07:22.847Z,30.70
2019-04-04T04:09:59.808Z,24.90
2019-04-04T04:12:34.965Z,31.90
2019-04-04T04:15:10.708Z,30.07
2019-04-04T04:17:46.557Z,32.00
2019-04-04T04:20:21.848Z,33.27
2019-04-04T04:22:56.930Z,29.97
2019-04-04T04:25:35.105Z,43.53
2019-04-04T04:28:08.989Z,39.73
2019-04-04T04:30:44.370Z,37.67
2019-04-04T04:33:19.448Z,27.93
2019-04-04T04:35:54.439Z,29.20
2019-04-04T04:38:29.459Z,31.53
2019-04-04T04:41:04.542Z,34.50
2019-04-04T04:43:40.260Z,28.20
2019-04-04T04:46:17.804Z,34.77
2019-04-04T04:48:52.085Z,31.70
2019-04-04T04:51:27.088Z,33.93
2019-04-04T04:54:02.287Z,35.00
2019-04-04T04:56:37.292Z,33.80
2019-04-04T04:59:13.234Z,34.80
2019-04-04T05:01:50.639Z,31.60
2019-04-04T05:04:27.827Z,29.70
2019-04-04T05:07:02.638Z,27.63
2019-04-04T05:09:37.631Z,31.00
2019-04-04T05:12:12.786Z,28.60
2019-04-04T05:14:47.738Z,36.87
2019-04-04T05:17:22.818Z,33.50
2019-04-04T05:19:57.751Z,30.73
2019-04-04T05:22:33.498Z,33.20
2019-04-04T05:25:09.112Z,30.87
2019-04-04T05:27:45.537Z,37.20
2019-04-04T05:30:20.718Z,31.50
2019-04-04T05:32:56.492Z,32.50
2019-04-04T05:35:33.434Z,30.23
2019-04-04T05:38:12.144Z,26.10
2019-04-04T05:40:45.721Z,29.73
2019-04-04T05:43:20.730Z,28.63
2019-04-04T05:45:55.908Z,31.60
2019-04-04T05:48:30.905Z,31.13
2019-04-04T05:51:06.214Z,29.40
2019-04-04T05:53:41.411Z,34.97
2019-04-04T05:56:16.493Z,28.37
2019-04-04T05:58:53.132Z,29.70
2019-04-04T06:01:29.103Z,29.17
2019-04-04T06:04:04.491Z,32.10
2019-04-04T06:06:39.711Z,27.23
2019-04-04T06:09:15.031Z,29.17
2019-04-04T06:11:50.905Z,29.77
2019-04-04T06:14:27.940Z,28.40
2019-04-04T06:17:05.105Z,30.20
2019-04-04T06:19:40.633Z,28.77
2019-04-04T06:22:15.799Z,41.83
2019-04-04T06:24:52.208Z,40.23
2019-04-04T06:27:29.684Z,35.80
2019-04-04T06:30:06.261Z,36.90
2019-04-04T06:32:42.521Z,37.20
2019-04-04T06:35:19.086Z,32.83
2019-04-04T06:37:55.318Z,34.87
2019-04-04T06:40:30.926Z,34.03
2019-04-04T06:43:12.048Z,32.33
2019-04-04T06:45:47.566Z,32.93
2019-04-04T06:48:22.953Z,31.97
2019-04-04T06:50:58.186Z,32.67
2019-04-04T06:53:33.959Z,32.00
2019-04-04T06:56:08.961Z,34.10
2019-04-04T06:58:44.563Z,33.60
2019-04-04T07:01:21.989Z,33.80
2019-04-04T07:03:59.461Z,38.10
2019-04-04T07:06:34.349Z,34.47
2019-04-04T07:09:13.268Z,36.30
2019-04-04T07:11:47.301Z,32.17
2019-04-04T07:14:22.507Z,30.47
2019-04-04T07:16:57.582Z,31.57
2019-04-04T07:19:32.895Z,35.57
2019-04-04T07:22:07.888Z,30.97
2019-04-04T07:24:43.204Z,30.03
2019-04-04T07:27:18.163Z,31.83
2019-04-04T07:29:56.593Z,32.67
2019-04-04T07:32:29.949Z,31.10
2019-04-04T07:35:05.265Z,34.43
2019-04-04T07:37:40.265Z,37.83
2019-04-04T07:40:15.281Z,34.87
2019-04-04T07:42:50.313Z,34.23
2019-04-04T07:45:26.981Z,34.90
2019-04-04T07:48:02.294Z,29.80
2019-04-04T07:50:40.143Z,33.63
2019-04-04T07:53:16.105Z,31.53
2019-04-04T07:55:51.971Z,31.43
2019-04-04T07:58:26.943Z,32.43
2019-04-04T08:01:03.573Z,34.40
2019-04-04T08:03:38.587Z,32.70
2019-04-04T08:06:13.719Z,29.33
2019-04-04T08:08:48.713Z,33.47
2019-04-04T08:11:24.079Z,37.27
2019-04-04T08:13:59.067Z,32.40
2019-04-04T08:16:34.257Z,35.07
2019-04-04T08:19:09.426Z,32.43
2019-04-04T08:21:44.403Z,32.13
2019-04-04T08:24:19.407Z,36.60
2019-04-04T08:26:54.370Z,36.40
2019-04-04T08:29:29.375Z,30.73
2019-04-04T08:32:04.717Z,32.17
2019-04-04T08:34:40.381Z,36.00
2019-04-04T08:37:15.357Z,35.33
2019-04-04T08:39:50.378Z,33.63
2019-04-04T08:42:25.437Z,38.37
2019-04-04T08:45:00.434Z,36.17
2019-04-04T08:47:35.581Z,38.17
2019-04-04T08:50:10.983Z,32.93
2019-04-04T08:52:45.971Z,32.60
2019-04-04T08:55:21.343Z,32.53
2019-04-04T08:57:56.411Z,36.23
2019-04-04T09:00:32.310Z,33.03
2019-04-04T09:03:07.283Z,35.93
2019-04-04T09:05:42.479Z,33.20
2019-04-04T09:08:17.427Z,31.77
2019-04-04T09:10:52.630Z,31.37
2019-04-04T09:13:27.627Z,31.50
2019-04-04T09:16:02.987Z,38.40
2019-04-04T09:18:38.919Z,32.90
2019-04-04T09:21:14.035Z,30.90
2019-04-04T09:23:49.093Z,33.80
2019-04-04T09:26:24.120Z,34.27
2019-04-04T09:28:59.115Z,30.43
2019-04-04T09:31:34.431Z,31.27
2019-04-04T09:34:09.513Z,34.87
2019-04-04T09:36:44.786Z,32.00
2019-04-04T09:39:19.792Z,32.20
2019-04-04T09:41:54.793Z,33.80
2019-04-04T09:44:29.769Z,30.27
2019-04-04T09:47:05.846Z,34.80
2019-04-04T09:49:40.977Z,35.03
2019-04-04T09:52:15.995Z,30.00
2019-04-04T09:54:52.669Z,34.43
2019-04-04T09:57:27.689Z,36.13
2019-04-04T10:00:04.830Z,31.07
2019-04-04T10:02:42.119Z,28.87
2019-04-04T10:05:18.527Z,31.83
2019-04-04T10:07:53.808Z,29.20
2019-04-04T10:10:29.725Z,32.77
2019-04-04T10:13:04.777Z,31.33
2019-04-04T10:15:40.843Z,35.33
2019-04-04T10:18:16.031Z,38.63
2019-04-04T10:20:51.139Z,51.43
2019-04-04T10:23:26.622Z,56.30
2019-04-04T10:26:01.887Z,51.93
2019-04-04T10:28:37.039Z,53.53
2019-04-04T10:31:12.197Z,63.23
2019-04-04T10:33:48.092Z,65.37
2019-04-04T10:36:23.229Z,59.73
2019-04-04T10:38:58.585Z,61.27
2019-04-04T10:41:34.272Z,58.73
2019-04-04T10:44:10.806Z,55.60
2019-04-04T10:46:45.893Z,61.83
2019-04-04T10:49:21.049Z,55.63
2019-04-04T10:51:56.128Z,42.90
2019-04-04T10:54:34.496Z,40.00
2019-04-04T10:57:09.724Z,43.47
2019-04-04T10:59:44.815Z,38.77
2019-04-04T11:02:19.881Z,35.37
2019-04-04T11:04:55.232Z,40.17
2019-04-04T11:07:30.894Z,38.13
2019-04-04T11:10:07.875Z,36.70
2019-04-04T11:12:44.493Z,34.07
2019-04-04T11:15:19.527Z,34.80
2019-04-04T11:17:54.699Z,30.30
2019-04-04T11:20:30.004Z,29.93
2019-04-04T11:23:05.071Z,30.00
2019-04-04T11:25:40.285Z,29.30
2019-04-04T11:28:15.396Z,29.77
2019-04-04T11:30:50.428Z,27.80
2019-04-04T11:33:27.536Z,30.60
2019-04-04T11:36:03.006Z,29.13
2019-04-04T11:38:38.075Z,30.33
2019-04-04T11:41:13.359Z,40.40
2019-04-04T11:43:48.478Z,27.53
2019-04-04T11:46:23.741Z,25.80
2019-04-04T11:48:58.789Z,28.77
2019-04-04T11:51:34.297Z,28.77
2019-04-04T11:54:09.499Z,29.37
2019-04-04T11:56:44.477Z,30.80
2019-04-04T11:59:19.547Z,30.90
2019-04-04T12:01:54.752Z,28.03
2019-04-04T12:04:29.782Z,28.80
2019-04-04T12:07:04.957Z,27.83
2019-04-04T12:09:40.001Z,32.23
2019-04-04T12:12:15.233Z,28.27
2019-04-04T12:14:50.244Z,28.57
2019-04-04T12:17:25.411Z,28.80
2019-04-04T12:20:00.433Z,27.07
2019-04-04T12:22:35.504Z,31.90
2019-04-04T12:25:11.037Z,31.60
2019-04-04T12:27:46.041Z,33.23
2019-04-04T12:30:21.535Z,30.33
2019-04-04T12:32:56.584Z,29.13
2019-04-04T12:35:31.861Z,31.83
2019-04-04T12:38:10.278Z,32.37
2019-04-04T12:40:46.100Z,29.70
2019-04-04T12:43:21.189Z,30.83
2019-04-04T12:45:57.615Z,31.43
2019-04-04T12:48:32.985Z,30.13
2019-04-04T12:51:08.047Z,33.40
2019-04-04T12:53:43.893Z,31.40
2019-04-04T12:56:19.130Z,34.37
2019-04-04T12:58:55.121Z,32.43
2019-04-04T13:01:30.147Z,36.27
2019-04-04T13:04:05.111Z,36.03
2019-04-04T13:06:40.114Z,36.47
2019-04-04T13:09:15.187Z,32.53
2019-04-04T13:11:50.235Z,33.93
2019-04-04T13:14:25.399Z,38.70
2019-04-04T13:17:00.403Z,33.90
2019-04-04T13:19:35.588Z,30.50
2019-04-04T13:22:10.588Z,27.13
2019-04-04T13:24:45.606Z,25.93
2019-04-04T13:27:20.734Z,26.80
2019-04-04T13:29:55.703Z,28.60
2019-04-04T13:32:30.722Z,26.60
2019-04-04T13:35:06.148Z,31.50
2019-04-04T13:37:41.307Z,27.90
2019-04-04T13:40:16.756Z,29.73
2019-04-04T13:42:53.095Z,28.37
2019-04-04T13:45:28.511Z,28.93
2019-04-04T13:48:05.334Z,28.13
2019-04-04T13:50:40.324Z,24.20
2019-04-04T13:53:15.373Z,27.10
2019-04-04T13:55:50.352Z,26.80
2019-04-04T13:58:25.360Z,25.47
2019-04-04T14:01:00.330Z,31.87
2019-04-04T14:03:35.438Z,28.50
2019-04-04T14:06:10.428Z,25.73
2019-04-04T14:08:46.177Z,28.83
2019-04-04T14:11:21.268Z,24.77
2019-04-04T14:13:58.704Z,26.63
2019-04-04T14:16:33.769Z,28.17
2019-04-04T14:19:10.204Z,27.43
2019-04-04T14:21:45.386Z,30.60
2019-04-04T14:24:21.522Z,28.53
2019-04-04T14:26:56.577Z,29.27
2019-04-04T14:29:31.795Z,28.23
2019-04-04T14:32:06.775Z,28.60
2019-04-04T14:34:42.040Z,33.97
2019-04-04T14:37:17.049Z,32.20
2019-04-04T14:39:52.147Z,26.27
2019-04-04T14:42:27.218Z,29.63
2019-04-04T14:45:02.899Z,27.33
2019-04-04T14:47:38.015Z,33.33
2019-04-04T14:50:13.530Z,35.67
2019-04-04T14:52:51.794Z,29.43
2019-04-04T14:55:26.012Z,33.20
2019-04-04T14:58:01.072Z,33.83
2019-04-04T15:00:36.122Z,40.10
2019-04-04T15:03:11.316Z,37.50
2019-04-04T15:05:46.326Z,37.93
2019-04-04T15:08:21.538Z,36.93
2019-04-04T15:10:56.531Z,36.17
2019-04-04T15:13:31.744Z,31.57
2019-04-04T15:16:18.986Z,32.87
2019-04-04T15:18:54.131Z,34.07
2019-04-04T15:21:29.146Z,36.10
2019-04-04T15:24:10.372Z,36.80
2019-04-04T15:26:45.380Z,37.13
2019-04-04T15:29:20.503Z,36.87
2019-04-04T15:31:55.492Z,38.77
2019-04-04T15:34:30.586Z,38.13
2019-04-04T15:37:05.629Z,38.37
2019-04-04T15:39:41.806Z,35.80
2019-04-04T15:42:17.790Z,51.97
2019-04-04T15:44:53.081Z,37.37
2019-04-04T15:47:28.262Z,39.30
2019-04-04T15:50:07.348Z,40.73
2019-04-04T15:52:44.268Z,37.77
2019-04-04T15:55:19.462Z,40.03
2019-04-04T15:57:54.449Z,40.00
2019-04-04T16:00:29.466Z,40.77
2019-04-04T16:03:04.488Z,37.87
2019-04-04T16:05:40.522Z,39.00
2019-04-04T16:08:15.494Z,42.53
2019-04-04T16:10:50.564Z,37.60
2019-04-04T16:13:28.312Z,42.50
2019-04-04T16:16:03.642Z,37.10
2019-04-04T16:18:38.654Z,41.00
2019-04-04T16:21:13.883Z,36.77
2019-04-04T16:23:48.889Z,38.17
2019-04-04T16:26:24.044Z,39.27
2019-04-04T16:28:59.110Z,42.33
2019-04-04T16:31:34.639Z,36.60
2019-04-04T16:34:09.907Z,41.80
2019-04-04T16:36:44.902Z,31.83
2019-04-04T16:39:22.347Z,35.70
2019-04-04T16:42:02.470Z,37.00
2019-04-04T16:44:34.832Z,33.80
2019-04-04T16:47:09.856Z,37.57
2019-04-04T16:49:45.028Z,38.70
2019-04-04T16:52:20.163Z,43.20
2019-04-04T16:54:55.168Z,44.53
2019-04-04T16:57:30.502Z,39.53
2019-04-04T17:00:08.666Z,41.40
2019-04-04T17:02:43.943Z,48.00
2019-04-04T17:05:19.950Z,38.90
2019-04-04T17:07:58.980Z,39.50
2019-04-04T17:10:34.327Z,32.40
2019-04-04T17:13:10.632Z,33.60
2019-04-04T17:15:46.373Z,33.33
2019-04-04T17:18:21.667Z,25.03
2019-04-04T17:24:08.414Z,26.27
2019-04-04T17:26:44.806Z,27.03
2019-04-04T17:29:20.957Z,24.40
2019-04-04T17:31:56.079Z,28.40
2019-04-04T17:34:54.006Z,24.90
2019-04-04T17:37:36.446Z,29.53
2019-04-04T17:40:13.040Z,22.87
2019-04-04T17:42:49.828Z,25.27
2019-04-04T17:45:25.240Z,26.03
2019-04-04T17:48:00.464Z,21.60
2019-04-04T17:50:35.656Z,26.63
2019-04-04T17:53:10.978Z,25.77
2019-04-04T17:55:46.466Z,25.13
2019-04-04T17:58:22.276Z,26.60
2019-04-04T18:00:57.311Z,20.97
2019-04-04T18:03:32.914Z,27.13
2019-04-04T18:06:08.226Z,22.27
2019-04-04T18:08:43.480Z,27.00
2019-04-04T18:11:20.182Z,25.23
2019-04-04T18:13:55.280Z,23.10
2019-04-04T18:16:30.301Z,20.23
2019-04-04T18:19:05.372Z,24.93
2019-04-04T18:21:40.485Z,19.03
2019-04-04T18:24:15.553Z,24.00
2019-04-04T18:26:50.575Z,19.87
2019-04-04T18:29:25.683Z,21.13
2019-04-04T18:32:00.675Z,21.47
2019-04-04T18:34:35.922Z,20.00
2019-04-04T18:37:11.080Z,22.60
2019-04-04T18:39:46.244Z,18.90
2019-04-04T18:42:21.343Z,22.80
2019-04-04T18:45:00.677Z,18.97
2019-04-04T18:47:35.973Z,19.43
2019-04-04T18:50:13.360Z,16.60
2019-04-04T18:52:48.547Z,15.13
2019-04-04T18:55:23.686Z,16.20
2019-04-04T18:57:58.662Z,18.97
2019-04-04T19:00:34.058Z,19.27
2019-04-04T19:03:09.097Z,21.50
2019-04-04T19:05:44.243Z,19.97
2019-04-04T19:08:19.368Z,18.30
2019-04-04T19:10:54.429Z,24.70
2019-04-04T19:13:43.760Z,23.10
2019-04-04T19:16:09.480Z,19.03
2019-04-04T19:18:44.717Z,27.30
2019-04-04T19:21:23.006Z,18.60
2019-04-04T19:23:58.247Z,19.20
2019-04-04T19:26:34.086Z,21.23
2019-04-04T19:29:09.159Z,18.20
2019-04-04T19:31:44.341Z,21.13
2019-04-04T19:34:19.409Z,20.33
2019-04-04T19:36:54.420Z,18.53
2019-04-04T19:39:29.427Z,19.67
2019-04-04T19:42:05.076Z,19.47
2019-04-04T19:44:53.224Z,23.37
2019-04-04T19:47:20.518Z,22.60
2019-04-04T19:49:55.650Z,21.53
2019-04-04T19:52:30.703Z,24.80
2019-04-04T19:55:05.819Z,23.87
2019-04-04T19:57:41.704Z,24.97
2019-04-04T20:00:17.024Z,26.30
2019-04-04T20:02:52.173Z,23.37
2019-04-04T20:05:27.245Z,23.60
2019-04-04T20:08:02.683Z,26.90
2019-04-04T20:10:37.770Z,26.60
2019-04-04T20:13:13.540Z,27.87
2019-04-04T20:15:48.645Z,31.90
2019-04-04T20:18:23.721Z,28.00
2019-04-04T20:20:58.957Z,29.93
2019-04-04T20:23:34.332Z,32.47
2019-04-04T20:26:12.856Z,29.00
2019-04-04T20:28:50.019Z,30.07
2019-04-04T20:31:25.104Z,28.60
2019-04-04T20:34:01.758Z,31.80
2019-04-04T20:36:36.928Z,28.67
2019-04-04T20:39:12.359Z,26.63
2019-04-04T20:41:47.379Z,29.27
2019-04-04T20:44:22.811Z,28.00
2019-04-04T20:46:57.804Z,29.97
2019-04-04T20:49:33.004Z,27.67
2019-04-04T20:52:08.004Z,23.53
2019-04-04T20:54:43.198Z,24.10
2019-04-04T20:57:18.259Z,32.43
2019-04-04T20:59:53.453Z,23.20
2019-04-04T21:02:28.476Z,27.90
2019-04-04T21:05:03.591Z,24.50
2019-04-04T21:07:38.712Z,31.13
2019-04-04T21:10:13.789Z,26.87
2019-04-04T21:12:58.512Z,25.33
2019-04-04T21:15:33.815Z,23.57
2019-04-04T21:18:08.893Z,29.03
2019-04-04T21:20:44.005Z,27.07
2019-04-04T21:23:19.813Z,26.57
2019-04-04T21:25:56.573Z,27.93
2019-04-04T21:28:32.967Z,27.73
2019-04-04T21:31:07.959Z,30.33
2019-04-04T21:33:43.498Z,24.33
2019-04-04T21:36:18.538Z,26.53
2019-04-04T21:38:53.663Z,26.60
2019-04-04T21:41:29.722Z,26.60
2019-04-04T21:44:09.095Z,28.63
2019-04-04T21:46:41.771Z,26.00
2019-04-04T21:49:16.772Z,26.67
2019-04-04T21:51:51.889Z,27.27
2019-04-04T21:54:29.627Z,28.90
2019-04-04T21:57:04.679Z,25.53
2019-04-04T21:59:39.667Z,29.07
2019-04-04T22:02:14.721Z,27.43
2019-04-04T22:04:49.691Z,28.43
2019-04-04T22:07:24.700Z,25.63
2019-04-04T22:09:59.716Z,27.90
2019-04-04T22:12:35.046Z,24.90
2019-04-04T22:15:10.538Z,21.80
2019-04-04T22:17:45.682Z,22.77
2019-04-04T22:20:21.858Z,21.13
2019-04-04T22:22:56.888Z,26.30
2019-04-04T22:25:32.123Z,19.50
2019-04-04T22:28:08.102Z,23.10
2019-04-04T22:30:43.908Z,23.00
2019-04-04T22:33:18.983Z,23.10
2019-04-04T22:35:54.139Z,21.47
2019-04-04T22:38:29.202Z,22.87
2019-04-04T22:41:04.419Z,24.30
2019-04-04T22:43:39.462Z,18.87
2019-04-04T22:46:14.647Z,23.17
2019-04-04T22:48:49.701Z,24.60
2019-04-04T22:51:24.722Z,25.40
2019-04-04T22:53:59.797Z,21.77
2019-04-04T22:56:35.155Z,28.47
2019-04-04T22:59:10.379Z,23.83
2019-04-04T23:01:45.417Z,26.73
2019-04-04T23:04:21.483Z,27.87
2019-04-04T23:06:56.511Z,30.13
2019-04-04T23:09:31.778Z,26.60
2019-04-04T23:12:06.954Z,29.57
2019-04-04T23:14:47.894Z,35.40
2019-04-04T23:17:18.944Z,30.77
2019-04-04T23:19:54.084Z,35.33
2019-04-04T23:22:29.276Z,31.00
2019-04-04T23:25:04.650Z,37.73
2019-04-04T23:27:40.064Z,33.70
2019-04-04T23:30:15.668Z,29.87
2019-04-04T23:32:50.863Z,34.70
2019-04-04T23:35:25.911Z,29.03
2019-04-04T23:38:00.913Z,30.60
2019-04-04T23:40:36.210Z,34.47
2019-04-04T23:43:11.365Z,34.40
2019-04-04T23:45:46.504Z,35.63
2019-04-04T23:48:21.768Z,29.47
2019-04-04T23:50:56.810Z,30.87
2019-04-04T23:53:32.206Z,33.80
2019-04-04T23:56:07.240Z,25.13
2019-04-04T23:58:43.571Z,30.03
